Time;durP1;ratioP1;P1;durP2;ratioP2;P2;SDS_P1;SDS_P2;PMS_P1;PMS_P2;Temp;Humidity;BMP_temperature;BMP_pressure;BME280_temperature;BME280_humidity;BME280_pressure;Samples;Min_cycle;Max_cycle;Signal;HPM_P1;HPM_P2
2021/11/16 00:00:55;;;;;;;61.17;56.40;;;;;;;7.81;100.00;102805.05;2016730;71;33373;-76
2021/11/16 00:06:39;;;;;;;64.00;59.10;;;;;;;7.69;100.00;102804.88;2013901;71;32892;-76
2021/11/16 00:12:22;;;;;;;62.10;57.20;;;;;;;7.62;100.00;102797.98;2016574;71;32879;-76
2021/11/16 00:18:07;;;;;;;64.37;59.37;;;;;;;7.50;100.00;102794.72;2013357;71;33326;-74
2021/11/16 00:23:54;;;;;;;62.10;56.97;;;;;;;7.48;100.00;102799.64;1974336;72;33021;-75
2021/11/16 00:29:38;;;;;;;65.50;60.40;;;;;;;7.31;100.00;102800.64;2008054;71;32858;-74
2021/11/16 00:35:23;;;;;;;62.77;57.87;;;;;;;6.92;100.00;102792.41;2002637;71;33623;-74
2021/11/16 00:41:07;;;;;;;62.20;57.17;;;;;;;7.35;100.00;102785.84;2011413;71;33366;-75
2021/11/16 00:46:52;;;;;;;62.27;57.13;;;;;;;7.47;100.00;102778.05;2014796;71;32883;-75
2021/11/16 00:52:37;;;;;;;59.77;54.97;;;;;;;7.62;100.00;102781.38;1997011;71;32834;-75
2021/11/16 00:58:22;;;;;;;61.73;56.73;;;;;;;7.86;100.00;102777.57;2013129;71;32864;-75
2021/11/16 01:04:06;;;;;;;60.97;56.10;;;;;;;7.78;100.00;102771.77;1998843;71;33249;-76
2021/11/16 01:09:50;;;;;;;60.93;56.07;;;;;;;7.65;100.00;102761.61;2007518;71;32890;-74
2021/11/16 01:15:36;;;;;;;62.47;57.47;;;;;;;7.70;100.00;102760.95;2013214;71;32801;-73
2021/11/16 01:21:20;;;;;;;61.87;56.97;;;;;;;7.61;100.00;102758.11;2006268;71;32736;-74
2021/11/16 01:27:07;;;;;;;61.73;56.83;;;;;;;7.50;100.00;102747.19;2002541;71;32861;-75
2021/11/16 01:32:58;;;;;;;58.63;54.03;;;;;;;7.57;100.00;102748.56;1997094;71;32749;-74
2021/11/16 01:38:36;;;;;;;61.03;56.23;;;;;;;7.30;100.00;102747.27;2004020;71;32876;-75
2021/11/16 01:44:21;;;;;;;60.80;56.00;;;;;;;7.31;100.00;102741.20;2014977;71;32808;-75
2021/11/16 01:50:06;;;;;;;62.27;57.47;;;;;;;6.79;100.00;102742.16;2011441;71;32785;-74
2021/11/16 01:55:50;;;;;;;62.10;57.27;;;;;;;6.91;100.00;102735.45;1994790;71;32800;-75
2021/11/16 02:01:36;;;;;;;60.20;55.53;;;;;;;6.83;100.00;102733.23;2003914;71;32900;-74
2021/11/16 02:07:21;;;;;;;60.57;55.87;;;;;;;6.91;100.00;102735.45;2016623;71;32798;-75
2021/11/16 02:13:05;;;;;;;63.53;58.30;;;;;;;6.85;100.00;102733.85;2016792;71;32802;-75
2021/11/16 02:18:49;;;;;;;61.90;56.80;;;;;;;6.73;100.00;102727.81;2009572;71;32808;-75
2021/11/16 02:24:33;;;;;;;59.80;55.10;;;;;;;6.45;100.00;102718.39;2015151;71;32813;-75
2021/11/16 02:30:19;;;;;;;62.80;57.57;;;;;;;6.35;100.00;102729.00;2013040;71;32873;-74
2021/11/16 02:36:03;;;;;;;61.10;56.13;;;;;;;6.20;100.00;102731.97;2016669;71;33363;-76
2021/11/16 02:41:51;;;;;;;61.90;56.90;;;;;;;6.34;100.00;102724.00;2000263;71;33348;-74
2021/11/16 02:47:35;;;;;;;61.87;57.07;;;;;;;6.27;100.00;102713.50;2011874;71;32743;-75
2021/11/16 02:53:20;;;;;;;65.40;60.20;;;;;;;6.14;100.00;102719.00;2005825;71;32877;-75
2021/11/16 02:59:05;;;;;;;63.87;58.73;;;;;;;5.93;100.00;102720.55;2011596;71;32820;-75
2021/11/16 03:04:49;;;;;;;62.10;57.00;;;;;;;5.80;100.00;102714.97;2004429;71;33198;-74
2021/11/16 03:10:46;;;;;;;61.67;56.77;;;;;;;5.83;100.00;102718.69;2011087;71;32815;-76
2021/11/16 03:16:33;;;;;;;63.27;58.17;;;;;;;5.55;100.00;102711.94;2011456;71;32864;-75
2021/11/16 03:22:16;;;;;;;62.70;57.63;;;;;;;5.50;100.00;102717.21;1998491;71;33375;-75
2021/11/16 03:28:03;;;;;;;62.63;57.63;;;;;;;5.44;100.00;102702.86;2002708;71;33122;-75
2021/11/16 03:33:50;;;;;;;61.97;56.67;;;;;;;5.30;100.00;102699.23;2013264;71;32809;-74
2021/11/16 03:39:36;;;;;;;63.17;57.67;;;;;;;5.21;100.00;102699.08;1994775;71;33291;-75
2021/11/16 03:45:25;;;;;;;60.00;54.70;;;;;;;5.16;100.00;102696.08;2009475;71;32968;-74
2021/11/16 03:51:10;;;;;;;62.43;57.00;;;;;;;5.19;100.00;102690.16;2009405;71;32860;-73
2021/11/16 03:57:00;;;;;;;60.93;55.93;;;;;;;5.10;100.00;102678.13;1991510;70;32802;-74
2021/11/16 04:02:40;;;;;;;63.43;57.90;;;;;;;4.93;100.00;102676.23;2004452;71;32859;-75
2021/11/16 04:08:24;;;;;;;59.40;54.63;;;;;;;4.95;100.00;102679.66;2016481;71;32883;-74
2021/11/16 04:14:09;;;;;;;59.03;54.03;;;;;;;5.03;100.00;102671.22;2011801;71;32739;-74
2021/11/16 04:19:53;;;;;;;59.80;54.73;;;;;;;4.75;100.00;102680.08;2004486;71;32736;-74
2021/11/16 04:25:39;;;;;;;59.80;54.57;;;;;;;4.80;100.00;102661.02;2014833;71;33401;-74
2021/11/16 04:31:23;;;;;;;58.90;53.80;;;;;;;4.81;100.00;102662.73;2011243;71;32879;-75
2021/11/16 04:37:07;;;;;;;59.97;55.07;;;;;;;4.56;100.00;102662.36;2018646;71;32894;-73
2021/11/16 04:42:54;;;;;;;58.57;53.87;;;;;;;4.51;100.00;102660.22;2014885;71;33329;-74
2021/11/16 04:48:51;;;;;;;61.90;56.50;;;;;;;4.56;100.00;102659.61;1991436;71;32742;-73
2021/11/16 05:06:41;;;;;;;57.00;52.50;;;;;;;4.24;100.00;102654.70;2007681;71;32812;-74
2021/11/16 05:12:27;;;;;;;59.10;54.00;;;;;;;4.37;100.00;102650.16;2011299;71;33360;-75
2021/11/16 05:18:11;;;;;;;56.90;52.40;;;;;;;4.19;100.00;102651.72;2016681;71;33387;-74
2021/11/16 05:23:57;;;;;;;57.73;53.23;;;;;;;4.19;100.00;102645.70;1971591;72;32922;-75
2021/11/16 05:29:42;;;;;;;60.87;55.83;;;;;;;4.19;100.00;102646.22;1991581;71;32744;-73
2021/11/16 05:35:26;;;;;;;62.30;57.20;;;;;;;4.16;100.00;102635.59;2003915;71;32798;-74
2021/11/16 05:41:10;;;;;;;61.07;56.07;;;;;;;4.23;100.00;102632.39;2011112;71;33318;-74
2021/11/16 05:46:55;;;;;;;59.70;54.70;;;;;;;4.17;100.00;102628.53;2006238;71;33314;-75
2021/11/16 05:52:40;;;;;;;63.00;57.50;;;;;;;4.23;100.00;102621.39;2016571;71;33326;-74
2021/11/16 05:58:25;;;;;;;63.43;58.27;;;;;;;4.21;100.00;102628.45;2003847;71;32873;-74
2021/11/16 06:04:09;;;;;;;62.50;57.33;;;;;;;4.56;100.00;102631.57;2003791;71;32887;-74
2021/11/16 06:09:53;;;;;;;64.70;59.20;;;;;;;4.62;100.00;102638.70;2007765;71;32902;-74
2021/11/16 06:15:36;;;;;;;63.70;58.63;;;;;;;4.22;100.00;102634.29;2013792;71;33199;-74
2021/11/16 06:21:21;;;;;;;59.67;54.90;;;;;;;4.43;100.00;102632.86;1991569;71;32817;-75
2021/11/16 06:27:06;;;;;;;59.87;54.93;;;;;;;4.16;100.00;102632.84;2018515;71;32811;-74
2021/11/16 06:32:50;;;;;;;60.53;55.53;;;;;;;4.46;100.00;102639.84;2011147;71;33322;-75
2021/11/16 06:38:35;;;;;;;61.37;56.43;;;;;;;4.07;100.00;102629.39;2011905;70;32739;-75
2021/11/16 06:44:22;;;;;;;59.93;55.30;;;;;;;4.56;100.00;102641.20;2014837;71;33339;-76
2021/11/16 06:50:09;;;;;;;62.23;57.43;;;;;;;4.24;100.00;102649.20;2011195;71;32864;-75
2021/11/16 06:55:54;;;;;;;61.27;56.27;;;;;;;3.99;100.00;102646.03;2004387;71;32743;-74
2021/11/16 07:01:38;;;;;;;61.93;57.20;;;;;;;3.89;100.00;102646.39;2018551;71;32809;-74
2021/11/16 07:07:24;;;;;;;62.10;57.40;;;;;;;3.71;100.00;102650.12;2013676;71;32800;-78
2021/11/16 07:13:10;;;;;;;61.67;56.83;;;;;;;3.83;100.00;102644.94;2015040;71;32859;-77
2021/11/16 07:18:57;;;;;;;59.97;55.47;;;;;;;3.80;100.00;102641.22;2016777;71;33380;-73
2021/11/16 07:24:48;;;;;;;57.17;52.97;;;;;;;3.72;100.00;102642.20;1994813;71;32876;-76
2021/11/16 07:30:35;;;;;;;61.47;56.63;;;;;;;3.41;100.00;102645.25;2014852;71;33397;-77
2021/11/16 07:36:20;;;;;;;62.03;57.17;;;;;;;3.27;100.00;102630.17;2007791;70;32803;-73
2021/11/16 07:42:09;;;;;;;57.63;53.27;;;;;;;3.35;100.00;102630.06;2009855;71;32736;-77
2021/11/16 07:47:54;;;;;;;61.10;56.30;;;;;;;3.30;100.00;102616.05;2005763;71;32918;-77
2021/11/16 07:53:58;;;;;;;58.00;53.63;;;;;;;3.36;100.00;102609.80;2001037;71;33309;-77
2021/11/16 07:59:42;;;;;;;59.03;54.27;;;;;;;3.41;100.00;102621.05;2014941;71;33261;-72
2021/11/16 08:05:37;;;;;;;60.10;55.30;;;;;;;3.49;100.00;102628.64;2011192;71;33308;-76
2021/11/16 08:11:29;;;;;;;57.37;52.87;;;;;;;3.94;100.00;102627.89;1991574;71;33180;-75
2021/11/16 08:17:15;;;;;;;59.97;55.17;;;;;;;4.16;100.00;102640.58;2007539;71;32817;-76
2021/11/16 08:23:07;;;;;;;62.17;56.77;;;;;;;4.50;100.00;102657.13;2014880;71;32809;-75
2021/11/16 08:28:52;;;;;;;59.10;54.33;;;;;;;4.56;100.00;102654.96;2012980;71;33527;-77
2021/11/16 08:34:38;;;;;;;62.97;58.23;;;;;;;4.41;100.00;102650.08;2009639;71;32795;-73
2021/11/16 08:40:26;;;;;;;64.80;60.03;;;;;;;4.59;100.00;102649.05;1998914;71;32839;-74
2021/11/16 08:46:17;;;;;;;60.53;55.97;;;;;;;4.23;100.00;102637.89;2011118;71;32784;-77
2021/11/16 08:52:01;;;;;;;61.77;57.17;;;;;;;4.36;100.00;102632.49;1997225;71;32740;-74
2021/11/16 08:57:49;;;;;;;62.27;57.53;;;;;;;4.33;100.00;102626.84;2006169;71;32804;-71
2021/11/16 09:03:38;;;;;;;59.40;55.03;;;;;;;4.48;100.00;102624.00;2018507;71;32868;-73
2021/11/16 09:09:30;;;;;;;61.70;57.20;;;;;;;4.56;100.00;102621.94;2003945;71;32816;-74
2021/11/16 09:15:22;;;;;;;57.87;53.30;;;;;;;4.78;100.00;102618.57;2009383;71;32869;-72
2021/11/16 09:21:09;;;;;;;60.43;55.83;;;;;;;5.04;100.00;102604.93;2000705;71;33327;-74
2021/11/16 09:26:59;;;;;;;59.17;54.50;;;;;;;5.67;100.00;102600.00;2000124;71;32886;-74
2021/11/16 09:33:04;;;;;;;60.80;56.03;;;;;;;5.89;100.00;102610.34;2005777;71;32879;-72
2021/11/16 09:39:11;;;;;;;61.77;56.53;;;;;;;5.65;100.00;102593.00;2004019;71;32879;-73
2021/11/16 09:44:59;;;;;;;60.83;55.63;;;;;;;6.05;100.00;102589.75;2011754;71;32799;-72
2021/11/16 09:50:46;;;;;;;63.23;58.03;;;;;;;6.20;100.00;102577.97;1991730;71;32855;-73
2021/11/16 09:56:32;;;;;;;63.23;58.13;;;;;;;6.21;100.00;102575.50;1998501;71;32799;-73
2021/11/16 10:02:28;;;;;;;64.33;59.13;;;;;;;6.62;100.00;102568.32;2003934;71;33339;-73
2021/11/16 10:08:17;;;;;;;59.33;54.77;;;;;;;6.89;100.00;102566.31;2005841;71;32796;-71
2021/11/16 10:14:03;;;;;;;60.63;55.83;;;;;;;6.98;100.00;102553.39;2004625;71;32743;-72
2021/11/16 10:19:47;;;;;;;58.03;53.27;;;;;;;7.29;100.00;102560.36;2008109;71;33221;-72
2021/11/16 10:25:32;;;;;;;62.73;57.83;;;;;;;7.64;100.00;102558.53;2004077;70;33280;-72
2021/11/16 10:31:31;;;;;;;59.40;54.60;;;;;;;7.87;100.00;102556.55;2014834;71;32817;-73
2021/11/16 10:37:15;;;;;;;59.30;54.60;;;;;;;7.95;100.00;102550.20;2016952;71;32863;-72
2021/11/16 10:43:02;;;;;;;61.67;56.27;;;;;;;8.20;100.00;102540.48;2005494;71;33422;-71
2021/11/16 10:48:50;;;;;;;59.93;54.87;;;;;;;8.00;100.00;102524.05;2013220;71;33340;-72
2021/11/16 10:54:34;;;;;;;59.80;54.70;;;;;;;8.10;100.00;102517.47;2007656;71;32912;-71
2021/11/16 11:00:29;;;;;;;60.90;56.03;;;;;;;8.26;100.00;102508.27;2006402;71;32812;-73
2021/11/16 11:06:39;;;;;;;60.10;55.40;;;;;;;8.55;100.00;102496.46;2013337;71;33442;-72
2021/11/16 11:12:25;;;;;;;58.93;54.33;;;;;;;8.69;100.00;102493.81;2009281;71;32817;-74
2021/11/16 11:18:09;;;;;;;58.27;53.70;;;;;;;9.01;100.00;102488.38;2014886;71;32805;-72
2021/11/16 11:23:56;;;;;;;57.63;53.13;;;;;;;9.34;100.00;102478.70;1980397;72;32917;-75
2021/11/16 11:29:45;;;;;;;59.97;55.27;;;;;;;9.55;100.00;102468.44;2011048;71;32824;-74
2021/11/16 11:35:31;;;;;;;59.27;54.67;;;;;;;9.89;100.00;102470.39;2014939;71;32846;-74
2021/11/16 11:41:25;;;;;;;58.43;53.83;;;;;;;9.88;100.00;102448.45;1999058;71;33207;-74
2021/11/16 11:47:29;;;;;;;60.00;55.23;;;;;;;10.11;100.00;102433.14;1995320;70;32785;-73
2021/11/16 11:53:17;;;;;;;59.27;54.53;;;;;;;10.30;100.00;102427.78;2014947;71;33316;-76
2021/11/16 11:59:03;;;;;;;57.37;52.90;;;;;;;10.42;100.00;102416.09;2016835;71;32800;-72
2021/11/16 12:04:48;;;;;;;62.77;58.03;;;;;;;10.49;100.00;102396.48;2008075;71;32742;-73
2021/11/16 12:10:32;;;;;;;59.43;54.90;;;;;;;10.67;100.00;102386.58;2014771;71;33063;-74
2021/11/16 12:16:21;;;;;;;56.27;51.87;;;;;;;10.68;100.00;102377.16;2002742;71;33272;-74
2021/11/16 12:22:19;;;;;;;56.53;52.03;;;;;;;10.83;100.00;102365.45;2018308;71;32814;-75
2021/11/16 12:28:21;;;;;;;54.80;50.43;;;;;;;10.90;100.00;102362.84;2005496;71;32929;-72
2021/11/16 12:34:05;;;;;;;56.13;51.93;;;;;;;11.03;100.00;102354.72;2010042;71;32763;-73
2021/11/16 12:40:07;;;;;;;54.37;50.17;;;;;;;11.06;100.00;102348.65;2005807;70;32830;-73
2021/11/16 12:45:53;;;;;;;54.50;50.40;;;;;;;11.17;100.00;102321.84;2009344;71;33403;-73
2021/11/16 12:51:59;;;;;;;54.13;49.97;;;;;;;11.24;100.00;102307.23;2008076;70;33300;-73
2021/11/16 12:57:45;;;;;;;56.13;51.57;;;;;;;11.38;100.00;102307.17;2011911;71;32749;-75
2021/11/16 13:03:53;;;;;;;56.50;52.20;;;;;;;11.50;100.00;102305.13;1997267;71;33213;-72
2021/11/16 13:09:48;;;;;;;53.40;49.37;;;;;;;11.50;100.00;102297.33;2004006;71;30961;-72
2021/11/16 13:12:52;;;;;;;53.07;49.27;;;;;;;11.48;100.00;102299.50;1986548;72;26223;-72
2021/11/16 13:19:15;;;;;;;52.57;48.97;;;;;;;11.61;100.00;102274.94;2002152;70;32916;-71
2021/11/16 13:24:59;;;;;;;55.67;51.83;;;;;;;11.68;100.00;102269.20;2006328;71;32746;-73
2021/11/16 13:31:26;;;;;;;55.67;51.50;;;;;;;11.81;100.00;102277.17;1994770;71;32798;-75
2021/11/16 13:34:02;;;;;;;57.53;53.10;;;;;;;11.80;100.00;102276.36;1985153;72;26224;-75
2021/11/16 13:40:14;;;;;;;58.83;54.53;;;;;;;11.75;100.00;102258.73;2009780;71;33401;-74
2021/11/16 13:46:00;;;;;;;55.60;51.60;;;;;;;11.75;100.00;102260.13;2008145;71;32758;-74
2021/11/16 13:51:45;;;;;;;57.30;53.10;;;;;;;11.71;100.00;102250.58;1995206;71;32813;-71
2021/11/16 13:57:33;;;;;;;56.73;52.87;;;;;;;11.81;100.00;102239.58;2015538;71;32891;-72
2021/11/16 14:03:24;;;;;;;56.87;53.13;;;;;;;11.78;100.00;102249.31;2016793;71;32816;-71
2021/11/16 14:09:21;;;;;;;56.97;53.13;;;;;;;11.81;100.00;102232.63;2004251;71;32889;-71
2021/11/16 14:15:14;;;;;;;59.47;55.53;;;;;;;11.85;100.00;102224.88;1994968;70;33344;-72
2021/11/16 14:21:01;;;;;;;59.40;55.37;;;;;;;11.90;100.00;102224.11;2003932;71;33299;-70
2021/11/16 14:26:47;;;;;;;60.27;56.17;;;;;;;11.95;100.00;102233.08;2004388;71;32751;-73
2021/11/16 14:32:33;;;;;;;62.97;58.53;;;;;;;12.01;100.00;102223.14;2009913;71;33271;-72
2021/11/16 14:38:18;;;;;;;62.60;58.30;;;;;;;11.99;100.00;102215.59;2014752;71;32878;-71
2021/11/16 14:44:08;;;;;;;57.70;53.67;;;;;;;12.04;100.00;102217.03;2011134;71;32805;-72
2021/11/16 14:49:58;;;;;;;56.40;52.53;;;;;;;12.12;100.00;102212.94;2005734;71;33349;-72
2021/11/16 14:55:44;;;;;;;55.93;51.93;;;;;;;12.02;100.00;102207.28;2007662;71;32801;-71
2021/11/16 15:01:32;;;;;;;58.37;54.13;;;;;;;11.88;100.00;102206.84;2013295;71;33299;-73
2021/11/16 15:07:19;;;;;;;56.03;51.93;;;;;;;11.86;100.00;102209.87;2014703;71;32876;-72
2021/11/16 15:13:10;;;;;;;59.77;55.67;;;;;;;11.87;100.00;102210.72;2004335;71;33261;-73
2021/11/16 15:19:12;;;;;;;58.77;54.33;;;;;;;11.89;100.00;102193.76;2007738;71;32816;-74
2021/11/16 15:25:15;;;;;;;56.23;52.03;;;;;;;11.72;100.00;102186.89;2006052;71;32749;-73
2021/11/16 15:31:10;;;;;;;58.97;54.27;;;;;;;11.75;100.00;102177.46;2016736;71;33396;-74
2021/11/16 15:36:55;;;;;;;62.03;57.53;;;;;;;11.57;100.00;102176.91;2013312;71;32825;-71
2021/11/16 15:42:58;;;;;;;61.13;56.70;;;;;;;11.57;100.00;102172.73;2014888;71;33003;-73
2021/11/16 15:48:50;;;;;;;59.53;55.00;;;;;;;11.60;100.00;102181.41;2002392;71;32803;-73
2021/11/16 16:00:55;;;;;;;62.67;57.87;;;;;;;11.54;100.00;102169.94;2002648;71;30796;-73
2021/11/16 16:06:42;;;;;;;64.27;59.47;;;;;;;11.34;100.00;102164.94;1995326;71;32837;-72
2021/11/16 16:12:33;;;;;;;66.10;61.10;;;;;;;11.33;100.00;102158.27;2009324;71;33311;-72
2021/11/16 16:18:26;;;;;;;68.60;63.17;;;;;;;11.27;100.00;102151.78;2004683;71;32842;-72
2021/11/16 16:24:06;;;;;;;72.67;66.97;;;;;;;11.26;100.00;102164.00;1971619;72;32977;-71
2021/11/16 16:29:50;;;;;;;79.27;73.03;;;;;;;11.21;100.00;102165.89;2012023;71;33232;-71
2021/11/16 16:35:34;;;;;;;78.03;71.07;;;;;;;11.07;100.00;102166.81;2009380;71;31458;-72
2021/11/16 16:41:20;;;;;;;83.00;76.13;;;;;;;11.07;100.00;102172.37;2006341;71;32861;-72
2021/11/16 16:47:06;;;;;;;81.33;74.53;;;;;;;10.95;100.00;102166.89;2004107;71;33315;-74
2021/11/16 16:52:50;;;;;;;79.27;72.63;;;;;;;11.00;100.00;102170.30;2014797;71;32856;-75
2021/11/16 16:58:36;;;;;;;76.50;69.97;;;;;;;11.07;100.00;102175.15;2004204;71;32816;-74
2021/11/16 17:04:26;;;;;;;70.90;65.17;;;;;;;11.02;100.00;102172.84;2011408;71;33399;-71
2021/11/16 17:10:12;;;;;;;70.77;65.07;;;;;;;11.06;100.00;102161.49;2011193;71;33437;-74
2021/11/16 17:15:57;;;;;;;68.10;62.20;;;;;;;10.97;100.00;102158.31;2016949;71;30943;-72
2021/11/16 17:21:41;;;;;;;70.53;64.67;;;;;;;10.81;100.00;102157.25;1995129;71;32926;-71
2021/11/16 17:27:27;;;;;;;68.10;62.43;;;;;;;10.86;100.00;102149.00;2011719;71;32832;-73
2021/11/16 17:33:12;;;;;;;61.40;56.30;;;;;;;10.92;100.00;102154.06;2009673;71;32879;-74
2021/11/16 17:38:58;;;;;;;65.07;59.77;;;;;;;11.08;100.00;102170.44;2015303;71;33300;-74
2021/11/16 17:44:43;;;;;;;67.70;61.93;;;;;;;11.20;100.00;102170.61;2009357;71;32889;-74
2021/11/16 17:50:31;;;;;;;71.20;65.20;;;;;;;11.06;100.00;102167.90;2004620;71;32810;-73
2021/11/16 17:56:14;;;;;;;70.13;64.13;;;;;;;11.11;100.00;102169.91;2007945;71;33604;-73
2021/11/16 18:01:59;;;;;;;73.50;67.20;;;;;;;11.08;100.00;102181.55;2005750;70;31018;-71
2021/11/16 18:08:00;;;;;;;73.33;66.77;;;;;;;11.01;100.00;102173.92;2002752;71;33239;-76
2021/11/16 18:13:47;;;;;;;73.60;67.10;;;;;;;10.83;100.00;102170.88;2009786;71;33346;-70
2021/11/16 18:19:31;;;;;;;69.77;63.57;;;;;;;10.98;100.00;102177.23;2016644;71;33449;-75
2021/11/16 18:25:19;;;;;;;72.27;65.93;;;;;;;10.93;100.00;102166.33;2013337;71;32974;-75
2021/11/16 18:31:06;;;;;;;70.43;64.13;;;;;;;10.95;100.00;102172.45;2018443;71;32820;-78
2021/11/16 18:36:52;;;;;;;69.80;63.63;;;;;;;10.91;100.00;102172.67;1994760;70;32841;-78
2021/11/16 18:42:43;;;;;;;73.27;66.87;;;;;;;10.99;100.00;102184.48;2010306;71;30828;-76
2021/11/16 18:48:30;;;;;;;70.10;64.00;;;;;;;10.95;100.00;102184.16;2000054;71;32816;-68
2021/11/16 18:54:13;;;;;;;70.27;64.17;;;;;;;10.95;100.00;102189.72;2016612;71;33334;-72
2021/11/16 18:59:58;;;;;;;71.23;65.03;;;;;;;10.98;100.00;102182.79;1994145;71;32828;-71
2021/11/16 19:05:42;;;;;;;71.90;65.30;;;;;;;11.00;100.00;102181.97;2005816;71;33408;-76
2021/11/16 19:11:26;;;;;;;72.30;66.43;;;;;;;11.08;100.00;102180.17;2000751;71;33329;-70
2021/11/16 19:17:14;;;;;;;71.30;65.40;;;;;;;11.04;100.00;102176.22;2000830;71;32778;-71
2021/11/16 19:23:08;;;;;;;69.50;64.13;;;;;;;10.96;100.00;102168.59;1989201;71;32871;-72
2021/11/16 19:28:55;;;;;;;71.30;65.90;;;;;;;10.93;100.00;102166.88;2004625;71;30916;-76
2021/11/16 19:34:38;;;;;;;72.63;66.77;;;;;;;10.97;100.00;102177.77;1991605;71;33241;-78
2021/11/16 19:40:27;;;;;;;70.37;64.93;;;;;;;10.91;100.00;102172.67;2011652;71;32787;-78
2021/11/16 19:46:13;;;;;;;69.77;63.87;;;;;;;10.92;100.00;102183.25;2013578;71;32881;-72
2021/11/16 19:51:57;;;;;;;68.80;63.20;;;;;;;10.93;100.00;102189.11;2003196;71;33440;-71
2021/11/16 19:57:42;;;;;;;69.80;64.60;;;;;;;10.93;100.00;102190.50;1995495;71;32881;-76
2021/11/16 20:03:31;;;;;;;71.73;66.07;;;;;;;10.91;100.00;102203.83;1998746;71;33319;-73
2021/11/16 20:09:15;;;;;;;72.07;66.17;;;;;;;10.98;100.00;102209.20;2009755;71;32907;-73
2021/11/16 20:14:59;;;;;;;71.87;66.10;;;;;;;11.06;100.00;102228.23;1994860;71;33416;-77
2021/11/16 20:20:46;;;;;;;69.37;63.97;;;;;;;11.13;100.00;102224.70;2018717;71;33340;-76
2021/11/16 20:26:32;;;;;;;69.17;63.67;;;;;;;11.07;100.00;102227.98;2011759;71;32812;-72
2021/11/16 20:32:32;;;;;;;71.13;65.50;;;;;;;11.04;100.00;102224.88;1999997;70;32954;-78
2021/11/16 20:38:39;;;;;;;72.33;66.60;;;;;;;11.03;100.00;102237.94;2009533;71;32867;-73
2021/11/16 20:44:33;;;;;;;65.07;59.57;;;;;;;11.07;100.00;102243.83;2018285;71;32978;-71
2021/11/16 21:02:15;;;;;;;65.07;59.67;;;;;;;11.09;100.00;102231.88;2013292;71;33439;-73
2021/11/16 21:07:59;;;;;;;65.90;60.30;;;;;;;11.12;100.00;102232.78;2013274;71;32813;-76
2021/11/16 21:13:43;;;;;;;67.73;62.03;;;;;;;11.06;100.00;102208.22;2011796;71;32834;-78
2021/11/16 21:19:27;;;;;;;69.73;63.97;;;;;;;11.17;100.00;102207.80;1991773;71;32835;-74
2021/11/16 21:25:11;;;;;;;68.57;62.87;;;;;;;11.07;100.00;102199.33;2010146;71;33346;-74
2021/11/16 21:31:00;;;;;;;65.90;60.07;;;;;;;11.08;100.00;102210.75;2013535;71;33305;-73
2021/11/16 21:36:44;;;;;;;68.03;62.53;;;;;;;11.04;100.00;102211.78;1991780;71;32825;-75
2021/11/16 21:42:38;;;;;;;65.67;59.87;;;;;;;11.07;100.00;102202.95;1966143;72;32746;-75
2021/11/16 21:45:26;;;;;;;67.60;61.83;;;;;;;11.13;100.00;102213.59;1934893;73;26225;-76
2021/11/16 21:47:59;;;;;;;66.93;61.13;;;;;;;11.21;100.00;102217.34;1956198;73;26234;-74
2021/11/16 21:50:30;;;;;;;64.43;58.83;;;;;;;11.20;100.00;102219.28;1923399;73;26194;-75
2021/11/16 21:53:01;;;;;;;63.10;57.50;;;;;;;11.17;100.00;102214.75;1926925;74;26257;-71
2021/11/16 21:55:31;;;;;;;65.77;60.23;;;;;;;11.10;100.00;102206.61;1937964;73;26586;-76
2021/11/16 21:58:02;;;;;;;64.20;58.90;;;;;;;11.08;100.00;102199.63;1949808;73;26183;-71
2021/11/16 22:00:32;;;;;;;62.43;57.43;;;;;;;11.05;100.00;102194.56;1956452;73;26191;-76
2021/11/16 22:03:03;;;;;;;62.63;57.43;;;;;;;11.08;100.00;102198.24;1931434;73;26190;-74
2021/11/16 22:05:35;;;;;;;63.47;58.37;;;;;;;11.10;100.00;102198.27;1937490;73;26202;-75
2021/11/16 22:08:12;;;;;;;66.40;60.90;;;;;;;10.96;100.00;102192.22;1931822;73;26206;-71
2021/11/16 22:13:19;;;;;;;61.37;56.20;;;;;;;11.01;100.00;102188.67;1934851;73;26274;-70
2021/11/16 22:15:51;;;;;;;64.93;59.67;;;;;;;10.99;100.00;102197.84;1930463;73;26203;-70
2021/11/16 22:18:27;;;;;;;63.93;58.83;;;;;;;10.92;100.00;102185.48;1928983;73;26315;-75
2021/11/16 22:24:12;;;;;;;64.20;58.90;;;;;;;10.64;100.00;102167.55;1974067;72;33398;-72
2021/11/16 22:30:02;;;;;;;63.03;57.73;;;;;;;10.56;100.00;102156.86;2009228;71;32872;-72
2021/11/16 22:35:43;;;;;;;62.93;57.50;;;;;;;10.72;100.00;102144.88;2014710;71;32891;-71
2021/11/16 22:41:32;;;;;;;63.60;58.30;;;;;;;10.58;100.00;102137.14;2013273;71;33399;-72
2021/11/16 22:47:14;;;;;;;65.30;59.80;;;;;;;10.20;100.00;102119.31;2016586;71;32930;-73
2021/11/16 22:52:59;;;;;;;61.73;56.33;;;;;;;10.31;100.00;102133.65;1997050;71;32756;-73
2021/11/16 22:58:44;;;;;;;62.20;57.10;;;;;;;10.11;100.00;102122.17;2013088;71;33374;-70
